createdAt,value
2018-06-23T00:01:12.337Z,5.07
2018-06-23T00:03:40.786Z,5.03
2018-06-23T00:06:09.326Z,5.13
2018-06-23T00:08:38.695Z,5.03
2018-06-23T00:11:07.218Z,4.37
2018-06-23T00:13:35.723Z,4.80
2018-06-23T00:16:04.558Z,4.23
2018-06-23T00:18:33.021Z,5.20
2018-06-23T00:21:01.675Z,4.50
2018-06-23T00:23:36.636Z,4.80
2018-06-23T00:26:10.779Z,4.40
2018-06-23T00:28:39.418Z,4.70
2018-06-23T00:31:08.117Z,4.70
2018-06-23T00:33:36.564Z,4.67
2018-06-23T00:36:05.064Z,4.90
2018-06-23T00:38:33.465Z,4.10
2018-06-23T00:41:01.955Z,4.50
2018-06-23T00:43:30.410Z,4.70
2018-06-23T00:45:59.017Z,4.33
2018-06-23T00:48:27.449Z,5.03
2018-06-23T00:50:55.946Z,6.10
2018-06-23T00:53:24.681Z,4.93
2018-06-23T00:55:53.213Z,4.10
2018-06-23T00:58:21.594Z,4.33
2018-06-23T01:00:49.797Z,4.17
2018-06-23T01:03:18.256Z,4.33
2018-06-23T01:05:46.746Z,4.67
2018-06-23T01:08:15.184Z,5.50
2018-06-23T01:10:43.672Z,4.97
2018-06-23T01:13:12.175Z,4.27
2018-06-23T01:15:40.631Z,4.40
2018-06-23T01:18:09.142Z,4.80
2018-06-23T01:20:37.592Z,4.80
2018-06-23T01:23:06.087Z,4.40
2018-06-23T01:25:34.665Z,4.70
2018-06-23T01:28:03.316Z,5.70
2018-06-23T01:30:31.842Z,5.00
2018-06-23T01:33:00.219Z,4.80
2018-06-23T01:35:28.716Z,5.27
2018-06-23T01:37:57.161Z,4.33
2018-06-23T01:40:25.669Z,4.33
2018-06-23T01:42:53.789Z,5.07
2018-06-23T01:45:22.292Z,4.70
2018-06-23T01:47:50.789Z,4.23
2018-06-23T01:50:19.356Z,4.80
2018-06-23T01:52:47.960Z,5.80
2018-06-23T01:55:16.432Z,4.97
2018-06-23T01:57:45.003Z,5.03
2018-06-23T02:00:13.740Z,5.10
2018-06-23T02:02:42.171Z,4.67
2018-06-23T02:05:10.641Z,4.57
2018-06-23T02:07:39.377Z,4.77
2018-06-23T02:10:07.765Z,4.90
2018-06-23T02:12:36.177Z,5.30
2018-06-23T02:15:09.673Z,5.17
2018-06-23T02:17:45.259Z,4.60
2018-06-23T02:20:19.113Z,5.50
2018-06-23T02:22:52.826Z,4.80
2018-06-23T02:25:26.938Z,5.07
2018-06-23T02:28:00.791Z,5.10
2018-06-23T02:30:40.079Z,5.10
2018-06-23T02:33:13.935Z,5.73
2018-06-23T02:35:42.656Z,5.20
2018-06-23T02:38:11.055Z,5.23
2018-06-23T02:40:40.054Z,5.80
2018-06-23T02:43:08.561Z,5.07
2018-06-23T02:45:36.744Z,4.93
2018-06-23T02:48:04.944Z,4.90
2018-06-23T02:50:33.369Z,5.53
2018-06-23T02:53:01.888Z,5.60
2018-06-23T02:55:30.314Z,4.97
2018-06-23T02:57:58.781Z,5.03
2018-06-23T03:00:27.310Z,5.37
2018-06-23T03:02:56.745Z,5.27
2018-06-23T03:05:25.253Z,5.57
2018-06-23T03:07:53.737Z,5.93
2018-06-23T03:10:22.211Z,6.00
2018-06-23T03:12:50.705Z,4.67
2018-06-23T03:15:19.188Z,5.43
2018-06-23T03:17:47.675Z,5.20
2018-06-23T03:20:16.188Z,6.07
2018-06-23T03:22:44.640Z,5.60
2018-06-23T03:25:13.164Z,4.90
2018-06-23T03:27:41.721Z,5.77
2018-06-23T03:30:10.164Z,5.13
2018-06-23T03:32:38.747Z,5.13
2018-06-23T03:35:07.253Z,5.40
2018-06-23T03:37:35.720Z,5.70
2018-06-23T03:40:04.332Z,5.47
2018-06-23T03:42:32.782Z,5.93
2018-06-23T03:45:01.250Z,5.90
2018-06-23T03:47:29.733Z,6.50
2018-06-23T03:49:58.633Z,5.53
2018-06-23T03:52:27.156Z,5.80
2018-06-23T03:54:55.595Z,5.97
2018-06-23T03:57:24.335Z,7.13
2018-06-23T03:59:52.753Z,6.83
2018-06-23T04:02:21.236Z,6.07
2018-06-23T04:04:49.965Z,6.57
2018-06-23T04:07:18.460Z,6.57
2018-06-23T04:09:46.879Z,7.30
2018-06-23T04:12:15.422Z,6.63
2018-06-23T04:14:43.935Z,6.57
2018-06-23T04:17:12.465Z,6.83
2018-06-23T04:19:40.901Z,7.37
2018-06-23T04:22:09.303Z,7.10
2018-06-23T04:24:37.784Z,7.20
2018-06-23T04:27:06.247Z,7.07
2018-06-23T04:29:34.760Z,7.07
2018-06-23T04:32:03.024Z,6.50
2018-06-23T04:34:31.509Z,6.43
2018-06-23T04:36:59.928Z,6.57
2018-06-23T04:39:28.451Z,6.73
2018-06-23T04:41:57.407Z,6.83
2018-06-23T04:44:26.032Z,6.20
2018-06-23T04:46:54.830Z,6.57
2018-06-23T04:49:23.291Z,6.50
2018-06-23T04:51:51.874Z,6.40
2018-06-23T04:54:20.370Z,5.83
2018-06-23T04:56:48.583Z,6.57
2018-06-23T04:59:17.139Z,6.37
2018-06-23T05:01:45.525Z,5.70
2018-06-23T05:04:14.126Z,5.47
2018-06-23T05:06:42.598Z,5.60
2018-06-23T05:09:11.024Z,6.10
2018-06-23T05:11:39.543Z,5.73
2018-06-23T05:14:08.090Z,5.50
2018-06-23T05:16:36.495Z,5.53
2018-06-23T05:19:04.917Z,5.20
2018-06-23T05:21:33.690Z,5.13
2018-06-23T05:24:02.062Z,5.40
2018-06-23T05:26:30.471Z,5.17
2018-06-23T05:28:59.008Z,4.87
2018-06-23T05:31:27.555Z,5.50
2018-06-23T05:33:56.162Z,4.23
2018-06-23T05:36:24.627Z,4.47
2018-06-23T05:38:53.358Z,4.13
2018-06-23T05:41:21.794Z,4.00
2018-06-23T05:43:50.272Z,4.90
2018-06-23T05:46:18.774Z,4.13
2018-06-23T05:48:47.480Z,4.70
2018-06-23T05:51:15.897Z,3.90
2018-06-23T05:53:44.369Z,4.47
2018-06-23T05:56:12.915Z,4.40
2018-06-23T05:58:41.344Z,3.80
2018-06-23T06:01:10.015Z,3.77
2018-06-23T06:03:38.446Z,4.10
2018-06-23T06:06:06.890Z,4.00
2018-06-23T06:08:35.404Z,4.00
2018-06-23T06:11:04.370Z,3.87
2018-06-23T06:13:32.854Z,3.77
2018-06-23T06:16:01.345Z,4.10
2018-06-23T06:18:29.842Z,3.83
2018-06-23T06:20:58.233Z,3.87
2018-06-23T06:23:26.741Z,5.00
2018-06-23T06:25:55.180Z,4.00
2018-06-23T06:28:23.625Z,3.73
2018-06-23T06:30:52.116Z,4.10
2018-06-23T06:33:20.565Z,3.93
2018-06-23T06:35:48.958Z,3.87
2018-06-23T06:38:18.013Z,4.17
2018-06-23T06:40:46.416Z,3.67
2018-06-23T06:43:14.952Z,4.30
2018-06-23T06:45:43.409Z,4.53
2018-06-23T06:48:11.871Z,3.27
2018-06-23T06:50:42.258Z,3.70
2018-06-23T06:53:10.676Z,4.33
2018-06-23T06:55:39.152Z,3.57
2018-06-23T06:58:07.711Z,3.97
2018-06-23T07:00:36.586Z,3.90
2018-06-23T07:03:05.067Z,3.80
2018-06-23T07:05:33.886Z,3.17
2018-06-23T07:08:02.258Z,4.27
2018-06-23T07:10:30.715Z,3.70
2018-06-23T07:12:59.282Z,3.80
2018-06-23T07:15:27.679Z,3.53
2018-06-23T07:17:56.185Z,3.63
2018-06-23T07:20:24.716Z,3.70
2018-06-23T07:22:53.162Z,3.37
2018-06-23T07:25:21.744Z,3.23
2018-06-23T07:27:50.808Z,3.70
2018-06-23T07:30:19.218Z,2.97
2018-06-23T07:32:47.721Z,4.10
2018-06-23T07:35:16.366Z,3.20
2018-06-23T07:37:44.672Z,3.30
2018-06-23T07:40:13.178Z,3.70
2018-06-23T07:42:41.559Z,4.00
2018-06-23T07:45:10.112Z,3.67
2018-06-23T07:47:38.412Z,3.10
2018-06-23T07:50:06.877Z,3.13
2018-06-23T07:52:35.622Z,3.50
2018-06-23T07:55:04.058Z,3.60
2018-06-23T07:57:32.503Z,3.30
2018-06-23T08:00:01.007Z,3.73
2018-06-23T08:02:29.454Z,3.20
2018-06-23T08:04:57.936Z,3.60
2018-06-23T08:07:26.695Z,3.43
2018-06-23T08:09:55.099Z,3.23
2018-06-23T08:12:23.628Z,3.70
2018-06-23T08:14:52.235Z,3.00
2018-06-23T08:17:20.724Z,3.17
2018-06-23T08:19:49.252Z,4.10
2018-06-23T08:22:17.707Z,3.60
2018-06-23T08:24:46.097Z,3.43
2018-06-23T08:27:14.640Z,3.27
2018-06-23T08:29:43.243Z,3.57
2018-06-23T08:32:11.736Z,3.20
2018-06-23T08:34:40.232Z,3.83
2018-06-23T08:37:08.710Z,3.77
2018-06-23T08:39:37.174Z,2.87
2018-06-23T08:42:05.662Z,3.30
2018-06-23T08:44:34.112Z,3.07
2018-06-23T08:47:02.625Z,3.23
2018-06-23T08:49:31.120Z,3.20
2018-06-23T08:51:59.574Z,3.07
2018-06-23T08:54:28.289Z,3.40
2018-06-23T08:56:56.800Z,3.20
2018-06-23T08:59:25.129Z,3.17
2018-06-23T09:01:53.633Z,3.53
2018-06-23T09:04:22.167Z,2.93
2018-06-23T09:06:51.809Z,2.80
2018-06-23T09:09:20.218Z,3.50
2018-06-23T09:11:48.655Z,2.87
2018-06-23T09:14:17.072Z,3.00
2018-06-23T09:16:45.536Z,2.77
2018-06-23T09:19:14.155Z,3.40
2018-06-23T09:21:42.538Z,2.93
2018-06-23T09:24:10.930Z,3.07
2018-06-23T09:26:39.345Z,3.57
2018-06-23T09:29:07.845Z,2.63
2018-06-23T09:31:36.251Z,2.97
2018-06-23T09:34:04.857Z,2.40
2018-06-23T09:36:33.376Z,2.77
2018-06-23T09:39:01.969Z,3.13
2018-06-23T09:41:30.488Z,2.60
2018-06-23T09:43:59.298Z,2.90
2018-06-23T09:46:27.825Z,2.80
2018-06-23T09:48:56.291Z,3.13
2018-06-23T09:51:24.728Z,2.67
2018-06-23T09:53:53.310Z,3.33
2018-06-23T09:56:22.000Z,2.70
2018-06-23T09:58:51.051Z,2.80
2018-06-23T10:01:19.491Z,3.23
2018-06-23T10:03:47.966Z,2.80
2018-06-23T10:06:16.395Z,2.90
2018-06-23T10:08:44.814Z,2.60
2018-06-23T10:11:13.329Z,3.03
2018-06-23T10:13:41.717Z,2.37
2018-06-23T10:16:10.231Z,2.20
2018-06-23T10:18:38.795Z,2.97
2018-06-23T10:21:07.331Z,3.03
2018-06-23T10:23:35.519Z,3.00
2018-06-23T10:26:03.970Z,2.60
2018-06-23T10:28:32.371Z,2.50
2018-06-23T10:31:00.994Z,2.80
2018-06-23T10:33:29.460Z,2.20
2018-06-23T10:35:57.890Z,2.40
2018-06-23T10:38:26.409Z,3.37
2018-06-23T10:40:54.858Z,3.17
2018-06-23T10:43:23.342Z,2.73
2018-06-23T10:45:52.091Z,2.90
2018-06-23T10:48:20.492Z,2.57
2018-06-23T10:50:48.920Z,2.43
2018-06-23T10:53:17.631Z,2.13
2018-06-23T10:55:46.065Z,2.80
2018-06-23T10:58:14.509Z,2.77
2018-06-23T11:00:43.051Z,3.13
2018-06-23T11:03:11.492Z,2.50
2018-06-23T11:05:40.009Z,2.20
2018-06-23T11:08:08.459Z,2.77
2018-06-23T11:10:36.960Z,2.80
2018-06-23T11:13:05.773Z,2.73
2018-06-23T11:15:34.241Z,2.63
2018-06-23T11:18:02.692Z,2.87
2018-06-23T11:20:31.314Z,2.50
2018-06-23T11:23:00.751Z,2.60
2018-06-23T11:25:29.220Z,2.63
2018-06-23T11:27:57.652Z,2.20
2018-06-23T11:30:26.129Z,1.90
2018-06-23T11:32:54.647Z,2.47
2018-06-23T11:35:23.064Z,2.07
2018-06-23T11:37:51.749Z,2.10
2018-06-23T11:40:20.290Z,2.07
2018-06-23T11:42:48.730Z,1.97
2018-06-23T11:45:16.905Z,2.10
2018-06-23T11:47:45.343Z,2.33
2018-06-23T11:50:13.862Z,2.10
2018-06-23T11:52:42.353Z,2.00
2018-06-23T11:55:10.804Z,2.00
2018-06-23T11:57:39.291Z,2.10
2018-06-23T12:00:08.012Z,1.87
2018-06-23T12:02:36.444Z,2.17
2018-06-23T12:05:05.783Z,2.37
2018-06-23T12:07:34.224Z,2.10
2018-06-23T12:10:02.639Z,2.20
2018-06-23T12:12:31.120Z,2.30
2018-06-23T12:14:59.284Z,2.60
2018-06-23T12:17:27.768Z,2.10
2018-06-23T12:19:56.397Z,2.33
2018-06-23T12:22:25.222Z,2.00
2018-06-23T12:24:53.432Z,2.30
2018-06-23T12:27:21.907Z,2.80
2018-06-23T12:29:50.387Z,2.60
2018-06-23T12:32:18.830Z,2.30
2018-06-23T12:34:47.766Z,2.33
2018-06-23T12:37:16.470Z,2.60
2018-06-23T12:39:45.074Z,2.17
2018-06-23T12:42:13.542Z,2.13
2018-06-23T12:44:41.984Z,2.60
2018-06-23T12:47:10.530Z,2.43
2018-06-23T12:49:39.110Z,2.90
2018-06-23T12:52:07.955Z,2.40
2018-06-23T12:54:36.657Z,2.63
2018-06-23T12:57:05.077Z,2.73
2018-06-23T12:59:33.628Z,2.40
2018-06-23T13:02:02.495Z,2.57
2018-06-23T13:04:31.185Z,2.70
2018-06-23T13:06:59.686Z,2.60
2018-06-23T13:09:28.136Z,2.27
2018-06-23T13:11:56.691Z,2.50
2018-06-23T13:14:25.328Z,2.60
2018-06-23T13:16:53.741Z,2.40
2018-06-23T13:19:22.228Z,2.50
2018-06-23T13:21:50.649Z,2.23
2018-06-23T13:24:19.072Z,2.40
2018-06-23T13:26:47.691Z,2.50
2018-06-23T13:29:16.171Z,2.17
2018-06-23T13:31:44.656Z,2.60
2018-06-23T13:34:13.208Z,2.80
2018-06-23T13:36:41.653Z,3.00
2018-06-23T13:39:10.953Z,2.80
2018-06-23T13:41:39.545Z,2.83
2018-06-23T13:44:07.932Z,2.70
2018-06-23T13:46:36.628Z,2.43
2018-06-23T13:49:05.590Z,2.20
2018-06-23T13:51:34.088Z,2.23
2018-06-23T13:54:04.855Z,2.43
2018-06-23T13:56:33.127Z,2.20
2018-06-23T13:59:01.876Z,2.20
2018-06-23T14:01:30.488Z,1.93
2018-06-23T14:03:58.895Z,2.07
2018-06-23T14:06:27.339Z,1.70
2018-06-23T14:08:55.668Z,1.90
2018-06-23T14:11:24.378Z,1.90
2018-06-23T14:13:52.820Z,1.93
2018-06-23T14:16:21.503Z,1.90
2018-06-23T14:18:49.904Z,2.03
2018-06-23T14:21:18.320Z,2.40
2018-06-23T14:23:47.151Z,1.70
2018-06-23T14:26:15.582Z,2.00
2018-06-23T14:28:44.032Z,2.17
2018-06-23T14:31:12.570Z,2.30
2018-06-23T14:33:41.043Z,2.07
2018-06-23T14:36:09.579Z,2.33
2018-06-23T14:38:38.113Z,2.07
2018-06-23T14:41:06.611Z,2.13
2018-06-23T14:43:35.258Z,2.23
2018-06-23T14:46:03.836Z,2.47
2018-06-23T14:48:32.277Z,2.23
2018-06-23T14:51:00.724Z,2.37
2018-06-23T14:53:29.416Z,2.53
2018-06-23T14:55:58.067Z,1.83
2018-06-23T14:58:26.538Z,2.07
2018-06-23T15:00:55.068Z,2.50
2018-06-23T15:03:23.572Z,2.10
2018-06-23T15:05:51.978Z,2.23
2018-06-23T15:08:31.851Z,2.40
2018-06-23T15:11:11.708Z,2.17
2018-06-23T15:13:40.136Z,2.67
2018-06-23T15:16:08.625Z,2.23
2018-06-23T15:18:37.140Z,2.10
2018-06-23T15:21:05.593Z,2.27
2018-06-23T15:23:34.170Z,2.30
2018-06-23T15:26:03.074Z,2.30
2018-06-23T15:28:31.592Z,2.40
2018-06-23T15:31:00.018Z,2.20
2018-06-23T15:33:28.411Z,2.07
2018-06-23T15:35:57.016Z,2.00
2018-06-23T15:38:25.466Z,1.93
2018-06-23T15:40:53.972Z,2.30
2018-06-23T15:43:22.150Z,1.77
2018-06-23T15:45:50.354Z,2.30
2018-06-23T15:48:18.883Z,2.47
2018-06-23T15:50:47.344Z,2.00
2018-06-23T15:53:15.767Z,1.90
2018-06-23T15:55:44.221Z,2.20
2018-06-23T15:58:12.686Z,2.20
2018-06-23T16:00:41.207Z,1.97
2018-06-23T16:03:09.654Z,1.77
2018-06-23T16:05:38.162Z,1.60
2018-06-23T16:08:06.618Z,1.73
2018-06-23T16:10:35.086Z,1.80
2018-06-23T16:13:03.636Z,2.20
2018-06-23T16:15:32.042Z,1.97
2018-06-23T16:18:00.530Z,1.77
2018-06-23T16:20:29.031Z,1.90
2018-06-23T16:22:57.479Z,1.70
2018-06-23T16:25:25.983Z,1.80
2018-06-23T16:27:54.478Z,1.87
2018-06-23T16:30:23.019Z,2.00
2018-06-23T16:32:51.508Z,1.70
2018-06-23T16:35:20.233Z,1.37
2018-06-23T16:37:48.492Z,1.70
2018-06-23T16:40:16.669Z,2.07
2018-06-23T16:42:52.061Z,1.93
2018-06-23T16:45:20.606Z,1.80
2018-06-23T16:47:48.979Z,1.70
2018-06-23T16:50:17.464Z,1.40
2018-06-23T16:52:45.906Z,1.50
2018-06-23T16:55:14.431Z,1.83
2018-06-23T16:57:44.249Z,1.77
2018-06-23T17:00:12.675Z,1.90
2018-06-23T17:02:41.172Z,1.80
2018-06-23T17:05:09.662Z,2.00
2018-06-23T17:07:38.470Z,1.60
2018-06-23T17:10:06.893Z,1.90
2018-06-23T17:12:35.417Z,2.30
2018-06-23T17:15:03.886Z,2.20
2018-06-23T17:17:32.290Z,1.93
2018-06-23T17:20:00.681Z,2.07
2018-06-23T17:22:29.112Z,2.00
2018-06-23T17:24:57.752Z,2.10
2018-06-23T17:27:26.316Z,2.00
2018-06-23T17:29:54.780Z,2.13
2018-06-23T17:32:23.509Z,2.00
2018-06-23T17:34:52.262Z,2.10
2018-06-23T17:37:20.949Z,2.10
2018-06-23T17:39:50.469Z,1.97
2018-06-23T17:42:18.985Z,1.97
2018-06-23T17:44:47.769Z,1.70
2018-06-23T17:47:16.157Z,2.33
2018-06-23T17:49:44.548Z,2.07
2018-06-23T17:52:12.970Z,2.33
2018-06-23T17:54:41.455Z,1.93
2018-06-23T17:57:10.013Z,2.20
2018-06-23T17:59:38.343Z,2.20
2018-06-23T18:02:07.407Z,2.13
2018-06-23T18:04:35.813Z,2.27
2018-06-23T18:07:04.215Z,2.23
2018-06-23T18:09:32.630Z,2.27
2018-06-23T18:12:01.037Z,1.83
2018-06-23T18:14:29.436Z,2.17
2018-06-23T18:16:57.821Z,2.17
2018-06-23T18:19:26.255Z,2.10
2018-06-23T18:21:54.662Z,2.37
2018-06-23T18:24:23.076Z,1.90
2018-06-23T18:26:51.445Z,1.90
2018-06-23T18:29:19.821Z,1.87
2018-06-23T18:31:48.386Z,2.10
2018-06-23T18:34:16.894Z,2.00
2018-06-23T18:36:45.285Z,2.43
2018-06-23T18:39:13.702Z,2.20
2018-06-23T18:41:42.135Z,2.37
2018-06-23T18:44:10.505Z,2.07
2018-06-23T18:46:38.901Z,2.20
2018-06-23T18:49:07.513Z,2.07
2018-06-23T18:51:35.962Z,2.00
2018-06-23T18:54:04.168Z,2.60
2018-06-23T18:56:32.777Z,2.03
2018-06-23T18:59:01.175Z,2.40
2018-06-23T19:01:29.571Z,2.37
2018-06-23T19:03:59.412Z,2.30
2018-06-23T19:06:27.833Z,2.33
2018-06-23T19:08:56.399Z,2.37
2018-06-23T19:11:25.147Z,2.40
2018-06-23T19:13:53.601Z,1.90
2018-06-23T19:16:22.185Z,2.40
2018-06-23T19:18:50.668Z,1.67
2018-06-23T19:21:19.180Z,2.20
2018-06-23T19:23:47.619Z,2.03
2018-06-23T19:26:16.241Z,2.30
2018-06-23T19:28:44.655Z,2.27
2018-06-23T19:31:13.400Z,2.07
2018-06-23T19:33:41.783Z,2.30
2018-06-23T19:36:10.183Z,2.53
2018-06-23T19:38:38.592Z,2.40
2018-06-23T19:41:24.950Z,2.27
2018-06-23T19:43:53.350Z,2.30
2018-06-23T19:46:21.730Z,2.40
2018-06-23T19:48:50.370Z,2.97
2018-06-23T19:51:18.602Z,2.40
2018-06-23T19:53:47.281Z,2.57
2018-06-23T19:56:15.689Z,2.80
2018-06-23T19:58:44.362Z,2.30
2018-06-23T20:01:12.855Z,2.50
2018-06-23T20:03:41.690Z,2.40
2018-06-23T20:06:10.097Z,2.80
2018-06-23T20:08:38.684Z,2.83
2018-06-23T20:11:13.449Z,2.50
2018-06-23T20:13:41.739Z,2.50
2018-06-23T20:16:10.282Z,2.60
2018-06-23T20:18:38.674Z,3.20
2018-06-23T20:21:07.116Z,3.13
2018-06-23T20:23:36.069Z,2.77
2018-06-23T20:26:04.465Z,2.60
2018-06-23T20:28:32.899Z,2.70
2018-06-23T20:31:01.300Z,2.87
2018-06-23T20:33:29.735Z,3.20
2018-06-23T20:35:58.267Z,2.60
2018-06-23T20:38:26.702Z,3.17
2018-06-23T20:40:55.183Z,3.20
2018-06-23T20:43:24.717Z,3.03
2018-06-23T20:45:53.173Z,3.10
2018-06-23T20:48:21.690Z,3.33
2018-06-23T20:50:50.476Z,3.00
2018-06-23T20:53:18.917Z,3.20
2018-06-23T20:55:47.416Z,3.20
2018-06-23T20:58:16.034Z,3.30
2018-06-23T21:00:45.801Z,3.37
2018-06-23T21:03:14.277Z,3.20
2018-06-23T21:05:42.910Z,3.13
2018-06-23T21:08:11.614Z,3.13
2018-06-23T21:10:47.873Z,3.47
2018-06-23T21:13:16.411Z,3.93
2018-06-23T21:15:44.871Z,3.07
2018-06-23T21:18:13.324Z,3.23
2018-06-23T21:20:42.034Z,3.47
2018-06-23T21:23:10.501Z,3.80
2018-06-23T21:25:38.897Z,3.67
2018-06-23T21:28:07.371Z,3.57
2018-06-23T21:30:35.785Z,3.30
2018-06-23T21:33:04.208Z,4.00
2018-06-23T21:35:32.851Z,3.60
